Terminal Aerodrome Forecast
Issued by NWS

Home | Current Version | Previous Version | Text Only | Print | Product List | Glossary On
Versions: 1 2 3 4 5 6 7 8 9 10 11 12 13 14 15
000
FTUS43 KDMX 231733
TAFFOD
TAF
KFOD 231733Z 2318/2418 15022G30KT P6SM VCSH BKN060 OVC110
     FM240100 04015G25KT P6SM SCT040 BKN080
     FM240400 13018G27KT P6SM TSRA SCT025CB OVC060
     FM240800 12018G26KT 5SM TSRA SCT008 BKN010CB BKN025
     FM241200 18010G15KT 5SM SHRA VCTS SCT008CB BKN015
     FM241500 30010G17KT 6SM BR SCT015 BKN025=

USA.gov is the U.S. government's official web portal to all federal, state and local government web resources and services.